createdAt,value
2017-10-15T00:00:00.375Z,91.70
2017-10-15T00:02:26.884Z,92.20
2017-10-15T00:04:53.339Z,92.60
2017-10-15T00:07:19.854Z,92.40
2017-10-15T00:09:46.338Z,92.40
2017-10-15T00:12:12.789Z,92.20
2017-10-15T00:14:39.236Z,92.60
2017-10-15T00:17:06.481Z,92.40
2017-10-15T00:19:33.666Z,92.70
2017-10-15T00:22:00.152Z,92.70
2017-10-15T00:24:26.594Z,92.10
2017-10-15T00:26:53.098Z,92.40
2017-10-15T00:29:19.531Z,92.30
2017-10-15T00:31:46.043Z,93.10
2017-10-15T00:34:12.573Z,93.90
2017-10-15T00:36:39.008Z,93.40
2017-10-15T00:39:05.536Z,93.10
2017-10-15T00:41:32.898Z,94.40
2017-10-15T00:43:59.366Z,94.40
2017-10-15T00:46:25.831Z,94.90
2017-10-15T00:48:52.316Z,94.50
2017-10-15T00:51:18.792Z,94.30
2017-10-15T00:53:45.997Z,92.90
2017-10-15T00:56:12.562Z,92.90
2017-10-15T00:58:39.163Z,92.60
2017-10-15T01:01:05.648Z,92.80
2017-10-15T01:03:32.843Z,93.80
2017-10-15T01:06:00.069Z,93.20
2017-10-15T01:08:26.518Z,93.20
2017-10-15T01:10:53.025Z,93.00
2017-10-15T01:13:20.250Z,93.00
2017-10-15T01:15:46.694Z,93.00
2017-10-15T01:18:13.873Z,93.00
2017-10-15T01:20:40.398Z,93.00
2017-10-15T01:23:06.931Z,92.60
2017-10-15T01:25:33.427Z,92.40
2017-10-15T01:27:59.889Z,92.40
2017-10-15T01:30:27.221Z,92.30
2017-10-15T01:32:53.784Z,92.30
2017-10-15T01:35:20.316Z,92.60
2017-10-15T01:37:46.835Z,92.30
2017-10-15T01:40:14.110Z,92.80
2017-10-15T01:42:40.607Z,92.70
2017-10-15T01:45:07.146Z,92.50
2017-10-15T01:47:34.412Z,92.50
2017-10-15T01:50:01.676Z,92.30
2017-10-15T01:52:28.911Z,92.40
2017-10-15T01:54:55.482Z,92.50
2017-10-15T01:57:21.990Z,92.50
2017-10-15T01:59:48.478Z,92.40
2017-10-15T02:02:15.038Z,92.90
2017-10-15T02:04:41.503Z,92.70
2017-10-15T02:07:07.986Z,92.50
2017-10-15T02:09:34.476Z,92.70
2017-10-15T02:12:01.647Z,92.40
2017-10-15T02:14:28.121Z,92.40
2017-10-15T02:16:54.630Z,92.30
2017-10-15T02:19:21.126Z,92.50
2017-10-15T02:21:48.325Z,92.60
2017-10-15T02:24:14.814Z,92.60
2017-10-15T02:26:41.282Z,92.70
2017-10-15T02:29:07.746Z,92.30
2017-10-15T02:31:34.190Z,92.10
2017-10-15T02:34:00.683Z,92.30
2017-10-15T02:36:27.145Z,92.30
2017-10-15T02:38:53.597Z,93.20
2017-10-15T02:41:20.895Z,92.60
2017-10-15T02:43:47.489Z,92.60
2017-10-15T02:46:14.015Z,92.80
2017-10-15T02:48:41.361Z,92.40
2017-10-15T02:51:07.784Z,92.40
2017-10-15T02:53:34.227Z,92.30
2017-10-15T02:56:00.647Z,92.30
2017-10-15T02:58:27.227Z,92.40
2017-10-15T03:00:54.377Z,92.90
2017-10-15T03:03:20.888Z,92.90
2017-10-15T03:05:48.174Z,93.60
2017-10-15T03:08:15.364Z,93.30
2017-10-15T03:10:41.824Z,93.30
2017-10-15T03:13:08.297Z,93.70
2017-10-15T03:15:35.526Z,94.10
2017-10-15T03:18:02.722Z,93.80
2017-10-15T03:20:29.194Z,93.80
2017-10-15T03:22:55.646Z,94.00
2017-10-15T03:25:22.838Z,94.10
2017-10-15T03:27:49.328Z,94.00
2017-10-15T03:30:15.854Z,94.10
2017-10-15T03:32:43.030Z,94.10
2017-10-15T03:35:09.528Z,94.00
2017-10-15T03:37:35.975Z,94.10
2017-10-15T03:40:02.461Z,93.70
2017-10-15T03:42:28.907Z,94.20
2017-10-15T03:44:55.377Z,94.00
2017-10-15T03:47:21.878Z,94.60
2017-10-15T03:49:48.364Z,94.40
2017-10-15T03:52:14.786Z,93.60
2017-10-15T03:54:41.940Z,93.70
2017-10-15T03:57:08.415Z,93.70
2017-10-15T03:59:34.886Z,93.80
2017-10-15T04:02:01.301Z,93.90
2017-10-15T04:04:27.744Z,93.40
2017-10-15T04:06:54.170Z,93.40
2017-10-15T04:09:20.661Z,93.70
2017-10-15T04:11:47.081Z,93.90
2017-10-15T04:14:14.337Z,93.20
2017-10-15T04:16:40.858Z,93.20
2017-10-15T04:19:08.059Z,92.90
2017-10-15T04:21:34.477Z,92.90
2017-10-15T04:24:00.958Z,93.00
2017-10-15T04:26:27.450Z,92.90
2017-10-15T04:28:53.918Z,92.90
2017-10-15T04:31:20.342Z,92.70
2017-10-15T04:33:46.762Z,92.70
2017-10-15T04:36:13.239Z,93.00
2017-10-15T04:38:39.666Z,93.00
2017-10-15T04:41:06.842Z,93.00
2017-10-15T04:43:33.309Z,93.00
2017-10-15T04:45:59.755Z,92.90
2017-10-15T04:48:26.250Z,93.00
2017-10-15T04:50:52.714Z,93.00
2017-10-15T04:53:19.139Z,93.00
2017-10-15T04:55:45.585Z,93.40
2017-10-15T04:58:12.039Z,93.90
2017-10-15T05:00:38.511Z,93.80
2017-10-15T05:03:04.946Z,94.00
2017-10-15T05:05:31.469Z,94.40
2017-10-15T05:07:57.913Z,94.10
2017-10-15T05:10:24.390Z,94.20
2017-10-15T05:12:50.876Z,94.50
2017-10-15T05:15:17.452Z,94.80
2017-10-15T05:17:43.965Z,94.80
2017-10-15T05:20:10.392Z,94.10
2017-10-15T05:22:36.903Z,93.90
2017-10-15T05:25:04.140Z,94.90
2017-10-15T05:27:30.592Z,94.90
2017-10-15T05:29:57.070Z,94.50
2017-10-15T05:32:23.553Z,94.30
2017-10-15T05:34:50.057Z,94.10
2017-10-15T05:37:16.606Z,94.20
2017-10-15T05:39:43.782Z,94.10
2017-10-15T05:42:10.272Z,94.10
2017-10-15T05:44:36.723Z,94.20
2017-10-15T05:47:03.269Z,94.30
2017-10-15T05:49:29.806Z,94.00
2017-10-15T05:51:56.273Z,94.00
2017-10-15T05:54:22.802Z,94.40
2017-10-15T05:56:49.344Z,94.10
2017-10-15T05:59:15.837Z,94.00
2017-10-15T06:01:43.031Z,94.80
2017-10-15T06:04:09.514Z,94.80
2017-10-15T06:06:36.045Z,94.90
2017-10-15T06:09:02.518Z,95.20
2017-10-15T06:11:29.046Z,95.10
2017-10-15T06:13:55.523Z,95.20
2017-10-15T06:16:22.010Z,94.90
2017-10-15T06:18:48.442Z,94.70
2017-10-15T06:21:14.955Z,94.90
2017-10-15T06:23:41.463Z,95.40
2017-10-15T06:26:07.981Z,95.40
2017-10-15T06:28:34.569Z,95.20
2017-10-15T06:31:01.077Z,94.60
2017-10-15T06:33:27.534Z,94.30
2017-10-15T06:35:54.722Z,93.40
2017-10-15T06:38:21.236Z,93.40
2017-10-15T06:40:47.674Z,93.30
2017-10-15T06:43:14.097Z,93.50
2017-10-15T06:45:41.284Z,93.40
2017-10-15T06:48:08.495Z,92.40
2017-10-15T06:50:35.695Z,91.00
2017-10-15T06:53:02.186Z,90.90
2017-10-15T06:55:28.618Z,90.10
2017-10-15T06:57:55.033Z,89.00
2017-10-15T07:00:21.553Z,88.00
2017-10-15T07:02:48.059Z,87.50
2017-10-15T07:05:14.504Z,87.10
2017-10-15T07:07:40.955Z,85.40
2017-10-15T07:10:08.151Z,83.80
2017-10-15T07:12:34.677Z,83.70
2017-10-15T07:15:01.233Z,82.10
2017-10-15T07:17:27.653Z,81.10
2017-10-15T07:19:54.104Z,82.50
2017-10-15T07:22:20.618Z,82.00
2017-10-15T07:24:47.166Z,82.30
2017-10-15T07:27:13.586Z,82.20
2017-10-15T07:29:40.063Z,81.50
2017-10-15T07:32:06.514Z,81.40
2017-10-15T07:34:32.979Z,81.90
2017-10-15T07:36:59.477Z,80.00
2017-10-15T07:39:25.985Z,79.60
2017-10-15T07:41:52.441Z,79.00
2017-10-15T07:44:19.641Z,75.80
2017-10-15T07:46:46.121Z,75.60
2017-10-15T07:49:12.558Z,73.10
2017-10-15T07:51:39.780Z,69.50
2017-10-15T07:54:06.206Z,69.50
2017-10-15T07:56:32.713Z,67.80
2017-10-15T07:58:59.170Z,64.80
2017-10-15T08:01:25.570Z,63.20
2017-10-15T08:03:52.021Z,61.10
2017-10-15T08:06:18.485Z,62.80
2017-10-15T08:08:44.929Z,62.30
2017-10-15T08:11:11.405Z,60.60
2017-10-15T08:13:37.878Z,59.20
2017-10-15T08:16:04.366Z,57.10
2017-10-15T08:18:31.638Z,55.20
2017-10-15T08:20:58.097Z,55.20
2017-10-15T08:23:24.611Z,53.30
2017-10-15T08:25:51.190Z,53.20
2017-10-15T08:28:17.677Z,53.80
2017-10-15T08:30:44.104Z,52.90
2017-10-15T08:33:10.528Z,54.20
2017-10-15T08:35:37.732Z,52.00
2017-10-15T08:38:05.573Z,50.40
2017-10-15T08:40:32.041Z,50.40
2017-10-15T08:42:58.561Z,49.20
2017-10-15T08:45:25.803Z,48.10
2017-10-15T08:47:52.289Z,48.10
2017-10-15T08:50:19.496Z,45.10
2017-10-15T08:52:45.961Z,45.10
2017-10-15T08:55:12.402Z,45.40
2017-10-15T08:57:39.615Z,42.90
2017-10-15T09:00:06.106Z,42.70
2017-10-15T09:02:32.613Z,41.60
2017-10-15T09:04:59.818Z,40.50
2017-10-15T09:07:26.282Z,40.50
2017-10-15T09:09:52.774Z,39.40
2017-10-15T09:12:19.247Z,38.90
2017-10-15T09:14:45.723Z,38.10
2017-10-15T09:17:12.183Z,37.80
2017-10-15T09:19:38.768Z,37.50
2017-10-15T09:22:05.973Z,36.20
2017-10-15T09:24:32.406Z,36.00
2017-10-15T09:26:58.900Z,35.90
2017-10-15T09:29:25.363Z,36.60
2017-10-15T09:31:51.849Z,36.50
2017-10-15T09:34:18.326Z,36.40
2017-10-15T09:36:44.776Z,37.00
2017-10-15T09:39:11.254Z,36.60
2017-10-15T09:41:38.441Z,35.80
2017-10-15T09:44:04.946Z,35.80
2017-10-15T09:46:32.134Z,36.90
2017-10-15T09:48:58.591Z,36.90
2017-10-15T09:51:25.090Z,37.40
2017-10-15T09:53:51.692Z,37.20
2017-10-15T09:56:18.173Z,36.60
2017-10-15T09:58:44.655Z,36.20
2017-10-15T10:01:11.114Z,36.60
2017-10-15T10:03:37.577Z,36.00
2017-10-15T10:06:04.042Z,36.00
2017-10-15T10:08:30.489Z,35.60
2017-10-15T10:10:56.975Z,35.80
2017-10-15T10:13:23.447Z,35.40
2017-10-15T10:15:49.939Z,34.80
2017-10-15T10:18:16.384Z,33.20
2017-10-15T10:20:42.787Z,34.50
2017-10-15T10:23:09.244Z,34.60
2017-10-15T10:25:35.680Z,34.20
2017-10-15T10:28:02.215Z,34.10
2017-10-15T10:30:28.650Z,33.70
2017-10-15T10:32:55.133Z,33.40
2017-10-15T10:35:22.361Z,32.70
2017-10-15T10:37:49.713Z,32.10
2017-10-15T10:40:16.220Z,32.00
2017-10-15T10:42:42.696Z,32.10
2017-10-15T10:45:09.213Z,31.10
2017-10-15T10:47:35.657Z,30.80
2017-10-15T10:50:02.114Z,30.10
2017-10-15T10:52:29.349Z,33.00
2017-10-15T10:54:55.795Z,33.00
2017-10-15T10:57:22.978Z,34.30
2017-10-15T10:59:49.442Z,34.10
2017-10-15T11:02:15.942Z,35.30
2017-10-15T11:04:42.423Z,36.40
2017-10-15T11:07:08.910Z,37.00
2017-10-15T11:09:35.347Z,34.60
2017-10-15T11:12:01.808Z,35.00
2017-10-15T11:14:28.248Z,36.10
2017-10-15T11:16:54.701Z,36.00
2017-10-15T11:19:21.921Z,34.90
2017-10-15T11:21:48.384Z,34.80
2017-10-15T11:24:14.914Z,34.80
2017-10-15T11:26:42.104Z,33.30
2017-10-15T11:29:08.557Z,33.20
2017-10-15T11:31:35.031Z,34.00
2017-10-15T11:34:01.494Z,34.00
2017-10-15T11:36:28.641Z,34.60
2017-10-15T11:38:55.083Z,34.50
2017-10-15T11:41:21.581Z,35.00
2017-10-15T11:43:47.977Z,34.60
2017-10-15T11:46:14.446Z,35.30
2017-10-15T11:48:40.921Z,35.30
2017-10-15T11:51:07.463Z,35.10
2017-10-15T11:53:33.935Z,35.80
2017-10-15T11:56:01.146Z,35.40
2017-10-15T11:58:27.598Z,35.30
2017-10-15T12:00:54.064Z,37.00
2017-10-15T12:03:21.293Z,34.50
2017-10-15T12:05:48.526Z,35.60
2017-10-15T12:08:15.011Z,35.60
2017-10-15T12:10:42.189Z,35.90
2017-10-15T12:13:08.677Z,35.90
2017-10-15T12:15:35.184Z,37.00
2017-10-15T12:18:01.648Z,34.70
2017-10-15T12:20:28.080Z,34.50
2017-10-15T12:22:54.558Z,33.50
2017-10-15T12:25:21.051Z,33.70
2017-10-15T12:27:47.681Z,33.70
2017-10-15T12:30:14.266Z,30.90
2017-10-15T12:32:40.721Z,31.90
2017-10-15T12:35:07.205Z,32.10
2017-10-15T12:37:33.665Z,31.70
2017-10-15T12:40:00.111Z,31.10
2017-10-15T12:42:26.586Z,32.40
2017-10-15T12:44:53.046Z,33.10
2017-10-15T12:47:20.266Z,34.00
2017-10-15T12:49:47.496Z,33.50
2017-10-15T12:52:13.953Z,33.40
2017-10-15T12:54:40.432Z,33.50
2017-10-15T12:57:06.872Z,34.00
2017-10-15T12:59:33.339Z,34.60
2017-10-15T13:01:59.770Z,34.60
2017-10-15T13:04:26.230Z,35.40
2017-10-15T13:06:52.654Z,35.00
2017-10-15T13:09:19.141Z,34.40
2017-10-15T13:11:45.582Z,34.70
2017-10-15T13:14:12.052Z,34.80
2017-10-15T13:16:38.585Z,33.00
2017-10-15T13:19:05.069Z,33.40
2017-10-15T13:21:31.526Z,33.10
2017-10-15T13:23:58.031Z,34.10
2017-10-15T13:26:24.483Z,32.90
2017-10-15T13:28:51.030Z,32.90
2017-10-15T13:31:17.503Z,33.00
2017-10-15T13:33:43.977Z,33.20
2017-10-15T13:36:10.798Z,33.80
2017-10-15T13:38:37.252Z,34.70
2017-10-15T13:41:03.700Z,34.10
2017-10-15T13:43:30.167Z,35.10
2017-10-15T13:45:56.642Z,35.20
2017-10-15T13:48:23.153Z,35.80
2017-10-15T13:50:50.333Z,35.90
2017-10-15T13:53:16.898Z,35.90
2017-10-15T13:55:43.356Z,36.20
2017-10-15T13:58:10.798Z,36.30
2017-10-15T14:00:37.298Z,37.50
2017-10-15T14:03:03.802Z,37.90
2017-10-15T14:05:31.096Z,36.90
2017-10-15T14:07:57.566Z,36.80
2017-10-15T14:10:24.027Z,37.40
2017-10-15T14:12:50.469Z,37.60
2017-10-15T14:15:16.948Z,37.50
2017-10-15T14:17:43.390Z,36.60
2017-10-15T14:20:10.612Z,37.70
2017-10-15T14:22:37.101Z,37.70
2017-10-15T14:25:04.346Z,38.30
2017-10-15T14:27:31.594Z,38.50
2017-10-15T14:29:58.909Z,37.80
2017-10-15T14:32:25.413Z,37.80
2017-10-15T14:34:51.955Z,37.40
2017-10-15T14:37:18.446Z,38.00
2017-10-15T14:39:44.877Z,39.40
2017-10-15T14:42:11.353Z,38.50
2017-10-15T14:44:37.812Z,39.20
2017-10-15T14:47:05.042Z,39.70
2017-10-15T14:49:31.548Z,40.00
2017-10-15T14:51:58.731Z,39.60
2017-10-15T14:54:25.221Z,39.60
2017-10-15T14:56:51.694Z,39.00
2017-10-15T14:59:18.170Z,39.60
2017-10-15T15:01:44.638Z,39.50
2017-10-15T15:04:11.874Z,39.30
2017-10-15T15:06:38.330Z,39.20
2017-10-15T15:09:04.810Z,39.30
2017-10-15T15:11:31.295Z,39.90
2017-10-15T15:13:57.787Z,40.50
2017-10-15T15:16:24.251Z,40.70
2017-10-15T15:18:50.774Z,40.50
2017-10-15T15:21:17.237Z,40.60
2017-10-15T15:23:43.793Z,40.70
2017-10-15T15:26:10.252Z,41.10
2017-10-15T15:28:36.721Z,41.10
2017-10-15T15:31:03.194Z,41.60
2017-10-15T15:33:29.614Z,42.00
2017-10-15T15:35:56.065Z,41.50
2017-10-15T15:38:22.554Z,41.70
2017-10-15T15:40:49.893Z,41.60
2017-10-15T15:43:16.390Z,41.50
2017-10-15T15:45:42.864Z,41.30
2017-10-15T15:48:09.314Z,41.70
2017-10-15T15:50:35.809Z,41.90
2017-10-15T15:53:03.073Z,42.30
2017-10-15T15:55:29.534Z,42.20
2017-10-15T15:57:56.757Z,46.60
2017-10-15T16:00:23.205Z,46.50
2017-10-15T16:02:49.722Z,49.30
2017-10-15T16:05:16.233Z,48.60
2017-10-15T16:07:42.715Z,49.50
2017-10-15T16:10:09.918Z,51.10
2017-10-15T16:12:36.426Z,51.10
2017-10-15T16:15:02.936Z,51.70
2017-10-15T16:17:29.485Z,51.60
2017-10-15T16:19:55.902Z,52.10
2017-10-15T16:22:23.102Z,52.10
2017-10-15T16:24:49.602Z,52.10
2017-10-15T16:27:16.067Z,52.20
2017-10-15T16:29:42.541Z,52.70
2017-10-15T16:32:09.042Z,52.90
2017-10-15T16:34:35.494Z,53.40
2017-10-15T16:37:01.950Z,53.50
2017-10-15T16:39:28.447Z,53.70
2017-10-15T16:41:54.911Z,53.70
2017-10-15T16:44:22.160Z,55.10
2017-10-15T16:46:48.625Z,55.10
2017-10-15T16:49:15.089Z,55.10
2017-10-15T16:51:41.570Z,55.60
2017-10-15T16:54:08.749Z,56.90
2017-10-15T16:56:35.247Z,56.70
2017-10-15T16:59:01.729Z,57.30
2017-10-15T17:01:28.301Z,57.70
2017-10-15T17:03:54.804Z,57.90
2017-10-15T17:06:21.348Z,58.10
2017-10-15T17:08:47.795Z,58.50
2017-10-15T17:11:14.309Z,58.80
2017-10-15T17:13:40.849Z,59.20
2017-10-15T17:16:07.304Z,60.00
2017-10-15T17:18:33.822Z,60.70
2017-10-15T17:21:00.311Z,61.10
2017-10-15T17:23:26.798Z,61.70
2017-10-15T17:25:54.161Z,62.30
2017-10-15T17:28:21.436Z,63.80
2017-10-15T17:30:47.992Z,63.80
2017-10-15T17:33:14.508Z,64.30
2017-10-15T17:35:41.711Z,66.20
2017-10-15T17:38:08.166Z,66.20
2017-10-15T17:40:34.633Z,67.60
2017-10-15T17:43:01.862Z,70.20
2017-10-15T17:45:29.113Z,70.80
2017-10-15T17:47:55.602Z,70.80
2017-10-15T17:50:22.123Z,71.40
2017-10-15T17:52:48.607Z,71.50
2017-10-15T17:55:15.158Z,71.70
2017-10-15T17:57:41.604Z,71.90
2017-10-15T18:00:08.893Z,71.40
2017-10-15T18:02:37.415Z,71.40
2017-10-15T18:05:06.156Z,71.50
2017-10-15T18:07:33.150Z,71.50
2017-10-15T18:09:59.953Z,71.40
2017-10-15T18:12:27.728Z,71.30
2017-10-15T18:14:54.565Z,71.40
2017-10-15T18:17:21.337Z,71.00
2017-10-15T18:19:47.910Z,70.40
2017-10-15T18:22:14.424Z,69.50
2017-10-15T18:24:41.661Z,68.50
2017-10-15T18:27:08.170Z,68.50
2017-10-15T18:29:34.667Z,68.60
2017-10-15T18:32:01.221Z,68.60
2017-10-15T18:34:27.993Z,68.90
2017-10-15T18:36:55.197Z,68.80
2017-10-15T18:39:22.542Z,69.50
2017-10-15T18:41:49.099Z,69.10
2017-10-15T18:44:15.655Z,69.00
2017-10-15T18:46:42.330Z,68.60
2017-10-15T18:49:09.074Z,68.40
2017-10-15T18:51:35.879Z,68.30
2017-10-15T18:54:02.725Z,68.10
2017-10-15T18:56:29.499Z,67.70
2017-10-15T18:58:57.094Z,67.00
2017-10-15T19:01:24.009Z,67.00
2017-10-15T19:03:50.817Z,66.50
2017-10-15T19:06:17.637Z,65.90
2017-10-15T19:08:44.490Z,65.90
2017-10-15T19:11:11.387Z,65.70
2017-10-15T19:13:38.164Z,65.60
2017-10-15T19:16:05.047Z,65.50
2017-10-15T19:18:31.858Z,65.70
2017-10-15T19:21:00.002Z,66.60
2017-10-15T19:23:27.584Z,65.90
2017-10-15T19:25:54.445Z,65.80
2017-10-15T19:28:21.265Z,66.10
2017-10-15T19:30:48.127Z,66.30
2017-10-15T19:33:14.946Z,66.60
2017-10-15T19:35:42.539Z,66.90
2017-10-15T19:38:09.358Z,66.90
2017-10-15T19:40:36.179Z,67.30
2017-10-15T19:43:03.728Z,68.00
2017-10-15T19:45:30.558Z,68.00
2017-10-15T19:47:57.349Z,67.80
2017-10-15T19:50:24.108Z,67.70
2017-10-15T19:52:50.878Z,67.50
2017-10-15T19:55:17.670Z,68.20
2017-10-15T19:57:44.451Z,67.30
2017-10-15T20:00:11.169Z,67.00
2017-10-15T20:02:37.729Z,66.30
2017-10-15T20:05:04.340Z,65.40
2017-10-15T20:07:31.552Z,60.30
2017-10-15T20:09:58.029Z,60.40
2017-10-15T20:12:24.533Z,60.30
2017-10-15T20:14:51.777Z,62.00
2017-10-15T20:17:18.233Z,62.00
2017-10-15T20:19:44.698Z,61.90
2017-10-15T20:22:11.916Z,61.50
2017-10-15T20:24:38.402Z,61.50
2017-10-15T20:27:04.959Z,61.50
2017-10-15T20:29:31.405Z,62.00
2017-10-15T20:31:57.859Z,62.20
2017-10-15T20:34:24.326Z,62.20
2017-10-15T20:36:50.767Z,62.10
2017-10-15T20:39:17.225Z,62.20
2017-10-15T20:41:43.658Z,62.80
2017-10-15T20:44:10.185Z,64.00
2017-10-15T20:46:36.717Z,64.80
2017-10-15T20:49:03.254Z,65.30
2017-10-15T20:51:29.687Z,65.60
2017-10-15T20:53:56.161Z,65.70
2017-10-15T20:56:22.698Z,65.60
2017-10-15T20:58:49.907Z,65.10
2017-10-15T21:01:16.350Z,65.10
2017-10-15T21:03:42.849Z,65.90
2017-10-15T21:06:09.313Z,67.20
2017-10-15T21:08:35.787Z,67.90
2017-10-15T21:11:03.046Z,68.50
2017-10-15T21:13:30.235Z,69.10
2017-10-15T21:15:56.666Z,69.10
2017-10-15T21:18:23.145Z,69.20
2017-10-15T21:20:49.599Z,69.50
2017-10-15T21:23:16.081Z,69.80
2017-10-15T21:25:42.531Z,70.50
2017-10-15T21:28:09.843Z,71.70
2017-10-15T21:30:36.315Z,71.70
2017-10-15T21:33:02.782Z,72.30
2017-10-15T21:35:30.050Z,73.90
2017-10-15T21:37:57.237Z,74.30
2017-10-15T21:40:23.717Z,74.30
2017-10-15T21:42:51.094Z,75.20
2017-10-15T21:45:18.292Z,75.40
2017-10-15T21:47:44.785Z,75.40
2017-10-15T21:50:11.227Z,75.70
2017-10-15T21:52:37.778Z,76.90
2017-10-15T21:55:04.230Z,76.80
2017-10-15T21:57:30.713Z,76.90
2017-10-15T21:59:57.142Z,77.30
2017-10-15T22:02:23.614Z,77.40
2017-10-15T22:04:50.053Z,77.80
2017-10-15T22:07:16.572Z,78.10
2017-10-15T22:09:43.022Z,78.20
2017-10-15T22:12:09.518Z,78.40
2017-10-15T22:14:36.051Z,78.50
2017-10-15T22:17:02.526Z,78.70
2017-10-15T22:19:29.044Z,78.90
2017-10-15T22:22:01.589Z,79.10
2017-10-15T22:24:28.762Z,78.80
2017-10-15T22:26:55.313Z,78.80
2017-10-15T22:29:21.749Z,78.90
2017-10-15T22:31:48.250Z,79.20
2017-10-15T22:34:14.707Z,79.30
2017-10-15T22:36:41.206Z,79.20
2017-10-15T22:39:08.410Z,79.20
2017-10-15T22:41:34.886Z,79.20
2017-10-15T22:44:01.366Z,79.50
2017-10-15T22:46:27.809Z,79.50
2017-10-15T22:48:54.242Z,79.80
2017-10-15T22:51:20.699Z,79.60
2017-10-15T22:53:47.877Z,79.50
2017-10-15T22:56:15.098Z,78.10
2017-10-15T22:58:41.517Z,78.10
2017-10-15T23:01:08.722Z,77.10
2017-10-15T23:03:35.211Z,77.10
2017-10-15T23:06:02.457Z,77.10
2017-10-15T23:08:28.899Z,77.10
2017-10-15T23:10:55.355Z,77.80
2017-10-15T23:13:21.802Z,78.20
2017-10-15T23:15:48.263Z,78.20
2017-10-15T23:18:14.766Z,78.00
2017-10-15T23:20:41.233Z,78.30
2017-10-15T23:23:07.687Z,78.50
2017-10-15T23:25:34.107Z,78.50
2017-10-15T23:28:01.317Z,78.70
2017-10-15T23:30:27.742Z,78.70
2017-10-15T23:32:54.206Z,79.20
2017-10-15T23:35:20.677Z,79.40
2017-10-15T23:37:47.115Z,79.50
2017-10-15T23:40:13.578Z,79.20
2017-10-15T23:42:40.038Z,78.90
2017-10-15T23:45:06.483Z,79.10
2017-10-15T23:47:32.920Z,79.20
2017-10-15T23:49:59.452Z,79.10
2017-10-15T23:52:25.914Z,78.90
2017-10-15T23:54:52.345Z,79.00
2017-10-15T23:57:18.795Z,79.30
2017-10-15T23:59:45.980Z,79.80
